Time;durP1;ratioP1;P1;durP2;ratioP2;P2;SDS_P1;SDS_P2;PMS_P1;PMS_P2;Temp;Humidity;BMP_temperature;BMP_pressure;BME280_temperature;BME280_humidity;BME280_pressure;Samples;Min_cycle;Max_cycle;Signal;HPM_P1;HPM_P2
2022/01/17 00:01:37;;;;;;;;;;;-1.50;99.90;;;;;;5114857;28;20009;-77
2022/01/17 00:04:03;;;;;;;;;;;-1.50;99.90;;;;;;5115440;28;19935;-77
2022/01/17 00:06:28;;;;;;;;;;;-1.40;99.90;;;;;;5114910;28;19939;-77
2022/01/17 00:08:54;;;;;;;;;;;-1.50;99.90;;;;;;5115015;28;19965;-77
2022/01/17 00:11:20;;;;;;;;;;;-1.40;99.90;;;;;;5113846;28;19965;-77
2022/01/17 00:13:46;;;;;;;;;;;-1.30;99.90;;;;;;5113409;28;19939;-77
2022/01/17 00:16:16;;;;;;;;;;;-1.30;99.90;;;;;;5114055;28;19915;-76
2022/01/17 00:21:11;;;;;;;;;;;-1.30;99.90;;;;;;5114994;28;20264;-77
2022/01/17 00:23:36;;;;;;;;;;;-1.30;99.90;;;;;;5114468;28;20425;-77
2022/01/17 00:26:04;;;;;;;;;;;-1.20;99.90;;;;;;5113577;28;19916;-77
2022/01/17 00:28:30;;;;;;;;;;;-1.20;99.90;;;;;;5112809;28;20361;-77
2022/01/17 00:30:55;;;;;;;;;;;-1.20;99.90;;;;;;5114963;28;19912;-77
2022/01/17 00:33:21;;;;;;;;;;;0.30;99.90;;;;;;5114271;28;20006;-78
2022/01/17 00:35:46;;;;;;;;;;;-1.20;99.90;;;;;;5114925;28;20174;-77
2022/01/17 00:38:12;;;;;;;;;;;-1.20;99.90;;;;;;5112424;28;19912;-77
2022/01/17 00:40:38;;;;;;;;;;;-1.10;99.90;;;;;;5113143;28;19927;-77
2022/01/17 00:43:04;;;;;;;;;;;-1.10;99.90;;;;;;5112812;28;19911;-77
2022/01/17 00:45:31;;;;;;;;;;;-1.10;99.90;;;;;;5112762;28;19916;-77
2022/01/17 00:47:57;;;;;;;;;;;-1.00;99.90;;;;;;5112361;28;19969;-77
2022/01/17 00:50:23;;;;;;;;;;;-1.00;99.90;;;;;;5114289;28;20353;-78
2022/01/17 00:52:49;;;;;;;;;;;-1.00;99.90;;;;;;5112343;28;19953;-77
2022/01/17 00:55:14;;;;;;;;;;;-0.90;99.90;;;;;;5112491;28;19912;-76
2022/01/17 00:57:40;;;;;;;;;;;-0.90;99.90;;;;;;5102814;28;19908;-77
2022/01/17 01:00:07;;;;;;;;;;;-0.90;99.90;;;;;;5092101;28;19964;-78
2022/01/17 01:02:32;;;;;;;;;;;-0.90;99.90;;;;;;5092777;28;19912;-77
2022/01/17 01:04:58;;;;;;;;;;;-0.90;99.90;;;;;;5092089;28;19926;-77
2022/01/17 01:07:23;;;;;;;;;;;-0.80;99.90;;;;;;5092869;28;19916;-76
2022/01/17 01:10:10;;;;;;;;;;;-0.80;99.90;;;;;;5091289;28;19916;-77
2022/01/17 01:12:36;;;;;;;;;;;-0.80;99.90;;;;;;5099840;28;19912;-77
2022/01/17 01:15:05;;;;;;;;;;;-0.70;99.90;;;;;;5113517;28;20464;-77
2022/01/17 01:17:34;;;;;;;;;;;-0.70;99.90;;;;;;5113119;28;19911;-77
2022/01/17 01:20:17;;;;;;;;;;;-0.70;99.90;;;;;;5113324;28;19911;-77
2022/01/17 01:28:11;;;;;;;;;;;-0.50;99.90;;;;;;5105985;28;20551;-77
2022/01/17 01:30:41;;;;;;;;;;;-0.40;99.90;;;;;;5111917;28;19912;-76
2022/01/17 01:33:07;;;;;;;;;;;-0.30;99.90;;;;;;5112730;28;20392;-76
2022/01/17 01:35:34;;;;;;;;;;;-0.30;99.90;;;;;;5111527;28;20010;-78
2022/01/17 01:38:00;;;;;;;;;;;-0.30;99.90;;;;;;5110633;28;19964;-76
2022/01/17 01:40:26;;;;;;;;;;;-0.30;99.90;;;;;;5111672;28;20326;-77
2022/01/17 01:42:52;;;;;;;;;;;-0.20;99.90;;;;;;5112640;28;19912;-78
2022/01/17 01:45:20;;;;;;;;;;;-0.20;99.90;;;;;;5110899;28;19922;-77
2022/01/17 01:47:46;;;;;;;;;;;-0.20;99.90;;;;;;5110821;28;20244;-77
2022/01/17 01:50:11;;;;;;;;;;;-0.10;99.90;;;;;;5111206;28;19923;-77
2022/01/17 01:52:38;;;;;;;;;;;-0.10;99.90;;;;;;5101916;28;19908;-77
2022/01/17 01:55:07;;;;;;;;;;;-0.20;99.90;;;;;;5090166;28;20417;-77
2022/01/17 01:57:33;;;;;;;;;;;-0.20;99.90;;;;;;5098370;28;19961;-77
2022/01/17 01:59:59;;;;;;;;;;;-0.20;99.90;;;;;;5111178;28;19912;-77
2022/01/17 02:02:24;;;;;;;;;;;-0.30;99.90;;;;;;5104665;28;20356;-77
2022/01/17 02:04:50;;;;;;;;;;;-0.40;99.90;;;;;;5091717;28;19922;-76
2022/01/17 02:07:15;;;;;;;;;;;-0.50;99.90;;;;;;5096141;28;19919;-77
2022/01/17 02:09:42;;;;;;;;;;;-0.50;99.90;;;;;;5112490;28;19919;-76
2022/01/17 02:12:08;;;;;;;;;;;-0.50;99.90;;;;;;5109970;28;20315;-77
2022/01/17 02:14:33;;;;;;;;;;;-0.60;99.90;;;;;;5111091;28;19973;-77
2022/01/17 02:17:03;;;;;;;;;;;-0.60;99.90;;;;;;5110521;28;20562;-77
2022/01/17 02:19:30;;;;;;;;;;;-0.60;99.90;;;;;;5112239;28;19916;-77
2022/01/17 02:21:56;;;;;;;;;;;-0.60;99.90;;;;;;5110808;28;19947;-76
2022/01/17 02:24:22;;;;;;;;;;;-0.60;99.90;;;;;;5110877;28;19963;-76
2022/01/17 02:26:48;;;;;;;;;;;-0.70;99.90;;;;;;5109826;28;19912;-77
2022/01/17 02:29:14;;;;;;;;;;;-0.60;99.90;;;;;;5090376;28;19964;-77
2022/01/17 02:31:41;;;;;;;;;;;-0.60;99.90;;;;;;5092353;28;19917;-77
2022/01/17 02:34:06;;;;;;;;;;;-0.60;99.90;;;;;;5112181;28;20492;-76
2022/01/17 02:36:32;;;;;;;;;;;-0.60;99.90;;;;;;5111772;28;20002;-76
2022/01/17 02:38:58;;;;;;;;;;;-0.60;99.90;;;;;;5111569;28;20339;-77
2022/01/17 02:41:27;;;;;;;;;;;-0.60;99.90;;;;;;5111786;28;19916;-77
2022/01/17 02:43:52;;;;;;;;;;;-0.60;99.90;;;;;;5111548;28;20403;-77
2022/01/17 02:46:24;;;;;;;;;;;-0.60;99.90;;;;;;5110393;28;19912;-77
2022/01/17 02:48:50;;;;;;;;;;;-0.50;99.90;;;;;;5111539;28;20002;-77
2022/01/17 02:51:16;;;;;;;;;;;-0.60;99.90;;;;;;5110472;28;20003;-77
2022/01/17 02:53:42;;;;;;;;;;;-0.50;99.90;;;;;;5111582;28;20300;-77
2022/01/17 02:56:08;;;;;;;;;;;-0.50;99.90;;;;;;5110498;28;20009;-77
2022/01/17 02:58:34;;;;;;;;;;;-0.50;99.90;;;;;;5109712;28;19916;-77
2022/01/17 03:01:02;;;;;;;;;;;-0.50;99.90;;;;;;5111895;28;20443;-77
2022/01/17 03:03:29;;;;;;;;;;;-0.50;99.90;;;;;;5109580;28;19973;-76
2022/01/17 03:05:56;;;;;;;;;;;-0.50;99.90;;;;;;5109830;28;20435;-76
2022/01/17 03:08:22;;;;;;;;;;;1.30;99.90;;;;;;5109593;28;19965;-77
2022/01/17 03:10:48;;;;;;;;;;;-0.40;99.90;;;;;;5111221;28;19961;-77
2022/01/17 03:13:15;;;;;;;;;;;-0.40;99.90;;;;;;5107565;28;19923;-76
2022/01/17 03:15:42;;;;;;;;;;;-0.40;99.90;;;;;;5110470;28;19911;-77
2022/01/17 03:18:08;;;;;;;;;;;-0.40;99.90;;;;;;5109023;28;19926;-76
2022/01/17 03:20:39;;;;;;;;;;;-0.40;99.90;;;;;;5109666;28;20277;-76
2022/01/17 03:23:06;;;;;;;;;;;-0.40;99.90;;;;;;5110612;28;20007;-76
2022/01/17 03:25:32;;;;;;;;;;;-0.40;99.90;;;;;;5109717;28;20330;-77
2022/01/17 03:27:58;;;;;;;;;;;-0.30;99.90;;;;;;5108955;28;19907;-76
2022/01/17 03:30:24;;;;;;;;;;;-0.20;99.90;;;;;;5111122;28;19912;-76
2022/01/17 03:32:50;;;;;;;;;;;-0.20;99.90;;;;;;5109658;28;20553;-76
2022/01/17 03:35:16;;;;;;;;;;;-0.20;99.90;;;;;;5109394;28;19998;-76
2022/01/17 03:37:42;;;;;;;;;;;-0.20;99.90;;;;;;5109259;28;19941;-76
2022/01/17 03:40:08;;;;;;;;;;;-0.10;99.90;;;;;;5110867;28;19924;-76
2022/01/17 03:42:36;;;;;;;;;;;-0.10;99.90;;;;;;5109198;28;20320;-77
2022/01/17 03:45:07;;;;;;;;;;;-0.10;99.90;;;;;;5111127;28;20302;-77
2022/01/17 03:47:35;;;;;;;;;;;0.00;99.90;;;;;;5111106;28;19912;-77
2022/01/17 03:50:03;;;;;;;;;;;0.00;99.90;;;;;;5111493;28;19923;-78
2022/01/17 03:52:29;;;;;;;;;;;0.00;99.90;;;;;;5109619;28;20132;-77
2022/01/17 03:54:54;;;;;;;;;;;0.10;99.90;;;;;;5109808;28;19931;-77
2022/01/17 03:57:20;;;;;;;;;;;0.10;99.90;;;;;;5109208;28;20233;-77
2022/01/17 03:59:45;;;;;;;;;;;0.10;99.90;;;;;;5109025;28;19958;-77
2022/01/17 04:02:11;;;;;;;;;;;0.20;99.90;;;;;;5110347;28;19951;-77
2022/01/17 04:04:36;;;;;;;;;;;0.20;99.90;;;;;;5110974;28;20393;-77
2022/01/17 04:07:02;;;;;;;;;;;0.20;99.90;;;;;;5110552;28;19919;-77
2022/01/17 04:09:28;;;;;;;;;;;0.20;99.90;;;;;;5111253;28;19920;-76
2022/01/17 04:11:55;;;;;;;;;;;0.30;99.90;;;;;;5109133;28;20003;-77
2022/01/17 04:14:21;;;;;;;;;;;0.30;99.90;;;;;;5111384;28;20027;-77
2022/01/17 04:16:47;;;;;;;;;;;0.30;99.90;;;;;;5109138;28;19908;-77
2022/01/17 04:19:13;;;;;;;;;;;0.30;99.90;;;;;;5110733;28;19983;-77
2022/01/17 04:21:38;;;;;;;;;;;0.40;99.90;;;;;;5109070;28;19912;-76
2022/01/17 04:24:04;;;;;;;;;;;0.40;99.90;;;;;;5110635;28;20428;-76
2022/01/17 04:26:30;;;;;;;;;;;0.40;99.90;;;;;;5113976;28;20386;-76
2022/01/17 04:28:56;;;;;;;;;;;0.50;99.90;;;;;;5112964;28;19915;-76
2022/01/17 04:31:21;;;;;;;;;;;0.50;99.90;;;;;;5113050;28;19972;-77
2022/01/17 04:33:47;;;;;;;;;;;0.50;99.90;;;;;;5094590;28;19916;-77
2022/01/17 04:36:13;;;;;;;;;;;0.40;99.90;;;;;;5092931;28;19930;-76
2022/01/17 04:38:38;;;;;;;;;;;0.50;99.90;;;;;;5111465;28;19916;-77
2022/01/17 04:41:12;;;;;;;;;;;0.60;99.90;;;;;;5114631;28;19994;-77
2022/01/17 04:46:04;;;;;;;;;;;0.50;99.90;;;;;;5114747;28;20402;-76
2022/01/17 04:48:30;;;;;;;;;;;0.40;99.90;;;;;;5114064;28;19942;-77
2022/01/17 04:50:56;;;;;;;;;;;0.40;99.90;;;;;;5113055;28;19908;-77
2022/01/17 04:53:22;;;;;;;;;;;0.30;99.90;;;;;;5112532;28;20014;-75
2022/01/17 04:55:48;;;;;;;;;;;0.20;99.90;;;;;;5112659;28;20359;-76
2022/01/17 04:58:14;;;;;;;;;;;0.10;99.90;;;;;;5113671;28;19969;-76
2022/01/17 05:00:46;;;;;;;;;;;0.10;99.90;;;;;;5114092;28;19908;-75
2022/01/17 05:03:15;;;;;;;;;;;0.10;99.90;;;;;;5098789;28;19967;-77
2022/01/17 05:05:41;;;;;;;;;;;0.00;99.90;;;;;;5092197;28;20256;-76
2022/01/17 05:08:07;;;;;;;;;;;-0.10;99.90;;;;;;5104349;28;19920;-77
2022/01/17 05:10:32;;;;;;;;;;;-0.10;99.90;;;;;;5113840;28;19998;-77
2022/01/17 05:12:58;;;;;;;;;;;-0.10;99.90;;;;;;5090403;28;19920;-76
2022/01/17 05:15:48;;;;;;;;;;;-0.10;99.90;;;;;;5071712;28;19947;-76
2022/01/17 05:18:25;;;;;;;;;;;-0.10;99.90;;;;;;5091317;28;19973;-76
2022/01/17 05:20:50;;;;;;;;;;;-0.10;99.90;;;;;;5093470;28;20192;-76
2022/01/17 05:23:16;;;;;;;;;;;-0.10;99.90;;;;;;5105738;28;19923;-76
2022/01/17 05:25:42;;;;;;;;;;;-0.10;99.90;;;;;;5113227;28;19923;-76
2022/01/17 05:28:07;;;;;;;;;;;0.00;99.90;;;;;;5113136;28;19984;-75
2022/01/17 05:30:33;;;;;;;;;;;0.00;99.90;;;;;;5111407;28;19907;-75
2022/01/17 05:32:58;;;;;;;;;;;0.00;99.90;;;;;;5112770;28;19934;-75
2022/01/17 05:35:24;;;;;;;;;;;0.10;99.90;;;;;;5112748;28;19915;-76
2022/01/17 05:37:51;;;;;;;;;;;0.10;99.90;;;;;;5110688;28;19911;-77
2022/01/17 05:40:17;;;;;;;;;;;0.10;99.90;;;;;;5111104;27;20417;-75
2022/01/17 05:42:43;;;;;;;;;;;0.10;99.90;;;;;;5112577;28;20268;-75
2022/01/17 05:45:09;;;;;;;;;;;0.10;99.90;;;;;;5111381;28;19926;-76
2022/01/17 05:47:35;;;;;;;;;;;0.20;99.90;;;;;;5103547;28;19973;-76
2022/01/17 05:50:03;;;;;;;;;;;0.20;99.90;;;;;;5092706;28;20359;-76
2022/01/17 05:52:31;;;;;;;;;;;0.20;99.90;;;;;;5098066;28;19908;-76
2022/01/17 05:54:56;;;;;;;;;;;0.20;99.90;;;;;;5112915;28;19916;-76
2022/01/17 05:57:23;;;;;;;;;;;0.30;99.90;;;;;;5110079;28;20335;-76
2022/01/17 05:59:49;;;;;;;;;;;0.30;99.90;;;;;;5110643;28;19923;-76
2022/01/17 06:02:14;;;;;;;;;;;0.30;99.90;;;;;;5111960;28;19911;-76
2022/01/17 06:04:40;;;;;;;;;;;0.40;99.90;;;;;;5112258;28;20379;-76
2022/01/17 06:07:05;;;;;;;;;;;0.40;99.90;;;;;;5110677;28;20299;-76
2022/01/17 06:09:31;;;;;;;;;;;0.40;99.90;;;;;;5112412;28;19959;-75
2022/01/17 06:11:57;;;;;;;;;;;0.50;99.90;;;;;;5108926;28;19912;-76
2022/01/17 06:14:23;;;;;;;;;;;0.50;99.90;;;;;;5112389;28;19920;-75
2022/01/17 06:16:48;;;;;;;;;;;0.50;99.90;;;;;;5111933;28;19919;-75
2022/01/17 06:19:14;;;;;;;;;;;0.50;99.90;;;;;;5111861;28;20310;-75
2022/01/17 06:21:40;;;;;;;;;;;0.50;99.90;;;;;;5112348;28;20244;-75
2022/01/17 06:24:06;;;;;;;;;;;0.50;99.90;;;;;;5110272;28;20006;-75
2022/01/17 06:26:39;;;;;;;;;;;0.60;99.90;;;;;;5112086;28;20390;-75
2022/01/17 06:29:05;;;;;;;;;;;0.60;99.90;;;;;;5070821;28;19963;-76
2022/01/17 06:31:31;;;;;;;;;;;0.60;99.90;;;;;;5070413;28;19916;-75
2022/01/17 06:33:56;;;;;;;;;;;0.60;99.90;;;;;;5108379;28;20019;-75
2022/01/17 06:36:22;;;;;;;;;;;0.70;99.90;;;;;;5110709;28;19919;-75
2022/01/17 06:38:49;;;;;;;;;;;0.70;99.90;;;;;;5092485;28;19938;-75
2022/01/17 06:41:18;;;;;;;;;;;0.70;99.90;;;;;;5091383;28;20291;-76
2022/01/17 06:43:44;;;;;;;;;;;0.70;99.90;;;;;;5109280;28;19923;-76
2022/01/17 06:46:10;;;;;;;;;;;0.70;99.90;;;;;;5111888;28;20271;-77
2022/01/17 06:48:35;;;;;;;;;;;0.80;99.90;;;;;;5109471;28;19916;-77
2022/01/17 06:51:01;;;;;;;;;;;0.80;99.90;;;;;;5110307;28;20274;-76
2022/01/17 06:53:27;;;;;;;;;;;0.80;99.90;;;;;;5109931;28;19919;-76
2022/01/17 06:55:56;;;;;;;;;;;0.80;99.90;;;;;;5111955;28;20377;-76
2022/01/17 06:58:22;;;;;;;;;;;0.90;99.90;;;;;;5110517;28;20279;-76
2022/01/17 07:00:48;;;;;;;;;;;0.80;99.90;;;;;;5110349;28;19951;-78
2022/01/17 07:03:14;;;;;;;;;;;0.90;99.90;;;;;;5108471;28;19963;-70
2022/01/17 07:05:40;;;;;;;;;;;0.90;99.90;;;;;;5108902;28;19912;-70
2022/01/17 07:08:05;;;;;;;;;;;1.00;99.90;;;;;;5109820;28;19959;-69
2022/01/17 07:10:31;;;;;;;;;;;1.00;99.90;;;;;;5110138;28;19915;-70
2022/01/17 07:12:56;;;;;;;;;;;1.10;99.90;;;;;;5108672;28;19966;-70
2022/01/17 07:15:22;;;;;;;;;;;1.10;99.90;;;;;;5110067;28;20516;-70
2022/01/17 07:17:48;;;;;;;;;;;1.10;99.90;;;;;;5109610;28;20123;-70
2022/01/17 07:20:13;;;;;;;;;;;1.20;99.90;;;;;;5110226;28;19988;-68
2022/01/17 07:22:39;;;;;;;;;;;1.20;99.90;;;;;;5109869;28;19911;-67
2022/01/17 07:25:05;;;;;;;;;;;1.20;99.90;;;;;;5110430;28;19920;-69
2022/01/17 07:27:30;;;;;;;;;;;1.20;99.90;;;;;;5109832;28;19918;-69
2022/01/17 07:29:56;;;;;;;;;;;1.20;99.90;;;;;;5109703;28;19922;-69
2022/01/17 07:32:22;;;;;;;;;;;1.30;99.90;;;;;;5109369;28;20310;-69
2022/01/17 07:34:48;;;;;;;;;;;1.30;99.90;;;;;;5110398;28;19916;-69
2022/01/17 07:37:13;;;;;;;;;;;1.30;99.90;;;;;;5108527;28;19953;-69
2022/01/17 07:39:39;;;;;;;;;;;1.30;99.90;;;;;;5109932;28;19923;-69
2022/01/17 07:42:05;;;;;;;;;;;1.30;99.90;;;;;;5109547;28;19907;-69
2022/01/17 07:44:31;;;;;;;;;;;1.30;99.90;;;;;;5110246;28;19986;-70
2022/01/17 07:47:00;;;;;;;;;;;1.30;99.90;;;;;;5109486;28;19960;-70
2022/01/17 07:49:25;;;;;;;;;;;1.40;99.90;;;;;;5109663;28;19965;-70
2022/01/17 07:51:56;;;;;;;;;;;1.40;99.90;;;;;;5109900;28;19912;-70
2022/01/17 07:54:23;;;;;;;;;;;1.50;99.90;;;;;;5110385;28;20305;-70
2022/01/17 07:56:48;;;;;;;;;;;1.50;99.90;;;;;;5109800;28;20006;-69
2022/01/17 07:59:14;;;;;;;;;;;1.50;99.90;;;;;;5109578;28;20010;-70
2022/01/17 08:01:40;;;;;;;;;;;1.50;99.90;;;;;;5113085;28;20250;-70
2022/01/17 08:04:06;;;;;;;;;;;1.50;99.90;;;;;;5114002;28;20447;-70
2022/01/17 08:06:36;;;;;;;;;;;1.50;99.90;;;;;;5113925;28;20010;-70
2022/01/17 08:09:04;;;;;;;;;;;1.60;99.90;;;;;;5073056;28;20016;-71
2022/01/17 08:11:30;;;;;;;;;;;1.60;99.90;;;;;;5076706;28;20271;-70
2022/01/17 08:13:55;;;;;;;;;;;1.60;99.90;;;;;;5112355;28;19915;-70
2022/01/17 08:16:21;;;;;;;;;;;1.60;99.90;;;;;;5108220;28;19923;-70
2022/01/17 08:18:46;;;;;;;;;;;1.60;99.90;;;;;;5110301;28;20269;-70
2022/01/17 08:21:12;;;;;;;;;;;1.60;99.90;;;;;;5113116;28;19915;-70
2022/01/17 08:23:38;;;;;;;;;;;1.60;99.90;;;;;;5112489;28;19980;-70
2022/01/17 08:26:03;;;;;;;;;;;1.60;99.90;;;;;;5113146;28;19996;-70
2022/01/17 08:28:29;;;;;;;;;;;1.70;99.90;;;;;;5105954;28;19927;-69
2022/01/17 08:30:54;;;;;;;;;;;1.70;99.90;;;;;;5086106;28;20023;-71
2022/01/17 08:33:21;;;;;;;;;;;1.70;99.90;;;;;;5084562;28;19927;-71
2022/01/17 08:35:47;;;;;;;;;;;1.70;99.90;;;;;;5084503;28;19991;-72
2022/01/17 08:38:13;;;;;;;;;;;1.70;99.90;;;;;;5080934;28;20035;-71
2022/01/17 08:40:38;;;;;;;;;;;1.70;99.90;;;;;;5081698;28;20308;-69
2022/01/17 08:43:04;;;;;;;;;;;1.80;99.90;;;;;;5090981;28;19969;-70
2022/01/17 08:45:30;;;;;;;;;;;1.80;99.90;;;;;;5084113;28;19916;-70
2022/01/17 08:47:55;;;;;;;;;;;1.80;99.90;;;;;;5088621;28;19916;-69
2022/01/17 08:50:22;;;;;;;;;;;1.80;99.90;;;;;;5083887;28;19992;-70
2022/01/17 08:52:48;;;;;;;;;;;1.90;99.90;;;;;;5084443;28;20051;-69
2022/01/17 08:55:14;;;;;;;;;;;1.90;99.90;;;;;;5084622;28;19911;-69
2022/01/17 08:57:40;;;;;;;;;;;1.90;99.90;;;;;;5099236;28;20372;-68
2022/01/17 09:00:07;;;;;;;;;;;1.90;99.90;;;;;;5086387;28;19920;-71
2022/01/17 09:02:34;;;;;;;;;;;2.00;99.90;;;;;;5080032;28;20027;-68
2022/01/17 09:04:59;;;;;;;;;;;2.00;99.90;;;;;;5076009;28;19921;-69
2022/01/17 09:07:25;;;;;;;;;;;2.00;99.90;;;;;;5084884;28;20406;-69
2022/01/17 09:09:50;;;;;;;;;;;2.00;99.90;;;;;;5087132;28;19932;-69
2022/01/17 09:12:16;;;;;;;;;;;2.00;99.90;;;;;;5078492;28;19963;-69
2022/01/17 09:14:41;;;;;;;;;;;2.10;99.90;;;;;;5080525;28;20670;-69
2022/01/17 09:17:08;;;;;;;;;;;2.10;99.90;;;;;;5088398;28;20010;-69
2022/01/17 09:19:34;;;;;;;;;;;2.10;99.90;;;;;;5088609;28;20443;-69
2022/01/17 09:22:01;;;;;;;;;;;2.10;99.90;;;;;;5085899;28;20368;-70
2022/01/17 09:24:26;;;;;;;;;;;2.10;99.90;;;;;;5080858;28;19978;-68
2022/01/17 09:26:52;;;;;;;;;;;2.20;99.90;;;;;;5080007;28;19924;-69
2022/01/17 09:29:17;;;;;;;;;;;2.20;99.90;;;;;;5088458;28;20015;-69
2022/01/17 09:31:43;;;;;;;;;;;2.20;99.90;;;;;;5082960;28;20011;-68
2022/01/17 09:34:09;;;;;;;;;;;2.30;99.90;;;;;;5085171;28;19966;-68
2022/01/17 09:36:35;;;;;;;;;;;2.20;99.90;;;;;;5087200;28;20015;-69
2022/01/17 09:39:01;;;;;;;;;;;2.30;99.90;;;;;;5085154;28;19916;-69
2022/01/17 09:41:27;;;;;;;;;;;2.30;99.90;;;;;;5076496;28;19927;-69
2022/01/17 09:43:53;;;;;;;;;;;2.30;99.90;;;;;;5080082;28;19928;-69
2022/01/17 09:46:22;;;;;;;;;;;2.30;99.90;;;;;;5085189;28;19916;-69
2022/01/17 09:48:49;;;;;;;;;;;2.30;99.90;;;;;;5082162;28;20445;-68
2022/01/17 09:51:38;;;;;;;;;;;2.30;99.90;;;;;;5090314;28;19912;-69
2022/01/17 09:54:05;;;;;;;;;;;2.30;99.90;;;;;;5080303;28;19920;-69
2022/01/17 09:56:31;;;;;;;;;;;2.30;99.90;;;;;;5104660;28;20000;-69
2022/01/17 09:58:57;;;;;;;;;;;2.30;99.90;;;;;;5083876;28;19965;-68
2022/01/17 10:01:24;;;;;;;;;;;2.30;99.90;;;;;;5086295;28;19923;-69
2022/01/17 10:03:52;;;;;;;;;;;2.30;99.90;;;;;;5079202;28;20359;-70
2022/01/17 10:06:18;;;;;;;;;;;2.30;99.90;;;;;;5084213;28;19916;-70
2022/01/17 10:08:44;;;;;;;;;;;2.30;99.90;;;;;;5078481;28;20019;-70
2022/01/17 10:11:15;;;;;;;;;;;2.30;99.90;;;;;;5104635;27;20372;-68
2022/01/17 10:13:45;;;;;;;;;;;2.30;99.90;;;;;;5088828;28;19965;-69
2022/01/17 10:16:15;;;;;;;;;;;2.30;99.90;;;;;;5086469;28;20769;-68
2022/01/17 10:19:01;;;;;;;;;;;2.30;99.90;;;;;;5086827;28;19920;-68
2022/01/17 10:21:34;;;;;;;;;;;2.30;99.90;;;;;;5083250;28;19919;-69
2022/01/17 10:35:09;;;;;;;;;;;2.40;99.90;;;;;;5087017;28;19927;-68
2022/01/17 10:37:34;;;;;;;;;;;2.40;99.90;;;;;;5091243;28;20359;-68
2022/01/17 10:40:02;;;;;;;;;;;2.40;99.90;;;;;;5075482;28;19974;-68
2022/01/17 10:42:31;;;;;;;;;;;2.50;99.90;;;;;;5087603;28;19916;-68
2022/01/17 10:45:01;;;;;;;;;;;2.50;99.90;;;;;;5077854;28;20453;-70
2022/01/17 10:47:27;;;;;;;;;;;2.50;99.90;;;;;;5086738;28;20003;-70
2022/01/17 10:49:54;;;;;;;;;;;2.50;99.90;;;;;;5071393;28;19924;-69
2022/01/17 10:52:27;;;;;;;;;;;2.50;99.90;;;;;;5098344;28;19961;-71
2022/01/17 10:55:12;;;;;;;;;;;2.50;99.90;;;;;;5081914;28;19951;-71
2022/01/17 10:57:40;;;;;;;;;;;2.60;99.90;;;;;;5075528;28;19923;-70
2022/01/17 11:00:32;;;;;;;;;;;2.60;99.90;;;;;;5079500;28;20023;-69
2022/01/17 11:02:59;;;;;;;;;;;2.60;99.90;;;;;;5086020;28;20360;-70
2022/01/17 11:05:27;;;;;;;;;;;2.60;99.90;;;;;;5079608;28;19927;-70
2022/01/17 11:07:55;;;;;;;;;;;2.60;99.90;;;;;;5080310;28;19920;-70
2022/01/17 11:10:22;;;;;;;;;;;2.60;99.90;;;;;;5078842;28;20347;-68
2022/01/17 11:12:49;;;;;;;;;;;0.80;99.90;;;;;;5095941;28;20522;-69
2022/01/17 11:15:16;;;;;;;;;;;2.60;99.90;;;;;;5081181;28;19920;-69
2022/01/17 11:17:49;;;;;;;;;;;2.60;99.90;;;;;;5077488;28;19917;-68
2022/01/17 11:20:15;;;;;;;;;;;2.60;99.90;;;;;;5075000;28;20276;-69
2022/01/17 11:22:42;;;;;;;;;;;2.60;99.90;;;;;;5084448;28;19912;-69
2022/01/17 11:25:09;;;;;;;;;;;2.60;99.90;;;;;;5076016;28;19920;-69
2022/01/17 11:27:36;;;;;;;;;;;2.60;99.90;;;;;;5080362;28;19916;-65
2022/01/17 11:30:02;;;;;;;;;;;2.60;99.90;;;;;;5091653;28;19975;-72
2022/01/17 11:32:28;;;;;;;;;;;2.60;99.90;;;;;;5077851;28;19916;-70
2022/01/17 11:34:57;;;;;;;;;;;2.60;99.90;;;;;;5072443;28;19931;-68
2022/01/17 11:37:23;;;;;;;;;;;2.70;99.90;;;;;;5091032;28;20017;-71
2022/01/17 11:39:50;;;;;;;;;;;2.70;99.90;;;;;;5077693;28;19925;-70
2022/01/17 11:42:33;;;;;;;;;;;2.70;99.90;;;;;;5093495;28;19947;-70
2022/01/17 11:44:59;;;;;;;;;;;2.60;99.90;;;;;;5081195;28;19925;-68
2022/01/17 11:47:43;;;;;;;;;;;2.70;99.90;;;;;;5092861;28;19926;-70
2022/01/17 11:50:27;;;;;;;;;;;2.70;99.90;;;;;;5077148;28;19948;-72
2022/01/17 11:52:53;;;;;;;;;;;2.70;99.90;;;;;;5083598;28;19939;-69
2022/01/17 11:55:37;;;;;;;;;;;2.80;99.90;;;;;;5084824;28;19962;-69
2022/01/17 11:58:24;;;;;;;;;;;2.80;99.90;;;;;;5080038;28;19963;-70
2022/01/17 12:00:59;;;;;;;;;;;2.80;99.90;;;;;;5078039;28;19920;-69
2022/01/17 12:03:27;;;;;;;;;;;2.80;99.90;;;;;;5081294;28;20355;-69
2022/01/17 12:05:54;;;;;;;;;;;2.80;99.90;;;;;;5078924;28;20015;-69
2022/01/17 12:08:21;;;;;;;;;;;2.80;99.90;;;;;;5091526;28;19916;-69
2022/01/17 12:10:57;;;;;;;;;;;2.80;99.90;;;;;;5090121;28;19912;-70
2022/01/17 12:13:30;;;;;;;;;;;2.90;99.90;;;;;;5077104;28;20379;-69
2022/01/17 12:16:10;;;;;;;;;;;2.90;99.90;;;;;;5090352;28;19912;-71
2022/01/17 12:18:37;;;;;;;;;;;2.90;99.90;;;;;;5113291;28;19916;-70
2022/01/17 12:21:16;;;;;;;;;;;3.00;99.90;;;;;;5113757;28;19988;-68
2022/01/17 12:23:41;;;;;;;;;;;3.00;99.90;;;;;;5102274;28;19928;-70
2022/01/17 12:26:26;;;;;;;;;;;3.00;99.90;;;;;;5106418;28;19916;-70
2022/01/17 12:28:53;;;;;;;;;;;2.90;99.90;;;;;;5092575;28;20326;-71
2022/01/17 12:31:37;;;;;;;;;;;2.80;99.90;;;;;;5095981;28;20061;-70
2022/01/17 12:34:15;;;;;;;;;;;2.80;99.90;;;;;;5073088;28;19952;-69
2022/01/17 12:36:42;;;;;;;;;;;2.70;99.90;;;;;;5087662;28;20369;-69
2022/01/17 12:39:12;;;;;;;;;;;2.60;99.90;;;;;;5113908;28;19920;-70
2022/01/17 12:41:39;;;;;;;;;;;2.50;99.90;;;;;;5100392;28;19917;-69
2022/01/17 12:44:12;;;;;;;;;;;2.50;99.90;;;;;;5086477;28;19928;-68
2022/01/17 12:46:37;;;;;;;;;;;2.50;99.90;;;;;;5096134;28;19916;-71
2022/01/17 12:49:03;;;;;;;;;;;2.40;99.90;;;;;;5084928;28;20390;-70
2022/01/17 12:51:28;;;;;;;;;;;2.40;99.90;;;;;;5085446;28;20287;-70
2022/01/17 12:53:54;;;;;;;;;;;2.40;99.90;;;;;;5089729;28;19927;-70
2022/01/17 12:56:21;;;;;;;;;;;2.40;99.90;;;;;;5084800;28;20041;-70
2022/01/17 12:58:47;;;;;;;;;;;2.30;99.90;;;;;;5090170;28;20425;-70
2022/01/17 13:01:13;;;;;;;;;;;2.30;99.90;;;;;;5086436;28;19927;-71
2022/01/17 13:03:42;;;;;;;;;;;2.20;99.90;;;;;;5098427;28;19917;-70
2022/01/17 13:06:10;;;;;;;;;;;2.20;99.90;;;;;;5086262;28;19978;-69
2022/01/17 13:08:36;;;;;;;;;;;2.20;99.90;;;;;;5082470;28;19971;-70
2022/01/17 13:11:14;;;;;;;;;;;2.20;99.90;;;;;;5091808;28;19917;-70
2022/01/17 13:13:47;;;;;;;;;;;2.10;99.90;;;;;;5078069;28;19916;-69
2022/01/17 13:16:13;;;;;;;;;;;2.10;99.90;;;;;;5092643;28;20386;-70
2022/01/17 13:18:39;;;;;;;;;;;2.10;99.90;;;;;;5084701;28;19920;-71
2022/01/17 13:21:05;;;;;;;;;;;2.10;99.90;;;;;;5079844;28;20283;-70
2022/01/17 13:23:36;;;;;;;;;;;2.10;99.90;;;;;;5084662;28;19920;-69
2022/01/17 13:26:02;;;;;;;;;;;2.10;99.90;;;;;;5083327;28;19916;-69
2022/01/17 13:28:28;;;;;;;;;;;2.10;99.90;;;;;;5087622;28;19969;-70
2022/01/17 13:30:54;;;;;;;;;;;2.10;99.90;;;;;;5085425;28;19916;-70
2022/01/17 13:33:19;;;;;;;;;;;2.10;99.90;;;;;;5083208;28;20006;-70
2022/01/17 13:35:46;;;;;;;;;;;2.10;99.90;;;;;;5081826;28;19916;-71
2022/01/17 13:38:17;;;;;;;;;;;2.10;99.90;;;;;;5076382;28;20020;-70
2022/01/17 13:40:43;;;;;;;;;;;2.00;99.90;;;;;;5090167;28;20382;-71
2022/01/17 13:43:08;;;;;;;;;;;2.00;99.90;;;;;;5083026;28;19917;-70
2022/01/17 13:45:37;;;;;;;;;;;2.00;99.90;;;;;;5077250;28;20015;-70
2022/01/17 13:48:04;;;;;;;;;;;2.00;99.90;;;;;;5104752;28;20311;-70
2022/01/17 13:50:30;;;;;;;;;;;2.00;99.90;;;;;;5090335;28;19935;-70
2022/01/17 13:52:57;;;;;;;;;;;2.00;99.90;;;;;;5084828;28;20415;-69
2022/01/17 13:55:30;;;;;;;;;;;2.00;99.90;;;;;;5088290;28;19919;-71
2022/01/17 13:57:57;;;;;;;;;;;2.00;99.90;;;;;;5077565;28;19969;-71
2022/01/17 14:00:23;;;;;;;;;;;2.00;99.90;;;;;;5078761;28;20393;-71
2022/01/17 14:02:50;;;;;;;;;;;2.00;99.90;;;;;;5081154;28;19912;-71
2022/01/17 14:05:28;;;;;;;;;;;2.00;99.90;;;;;;5080642;28;19927;-69
2022/01/17 14:08:08;;;;;;;;;;;1.90;99.90;;;;;;5083138;28;20330;-69
2022/01/17 14:10:34;;;;;;;;;;;1.90;99.90;;;;;;5081856;28;19920;-69
2022/01/17 14:12:59;;;;;;;;;;;2.00;99.90;;;;;;5084092;28;19912;-73
2022/01/17 14:15:26;;;;;;;;;;;2.00;99.90;;;;;;5078648;28;19957;-70
2022/01/17 14:17:52;;;;;;;;;;;1.90;99.90;;;;;;5090025;28;19924;-70
2022/01/17 14:20:18;;;;;;;;;;;1.90;99.90;;;;;;5099874;28;19912;-70
2022/01/17 14:22:47;;;;;;;;;;;1.90;99.90;;;;;;5092227;28;19916;-70
2022/01/17 14:25:17;;;;;;;;;;;1.90;99.90;;;;;;5078560;28;20011;-70
2022/01/17 14:27:54;;;;;;;;;;;1.90;99.90;;;;;;5093528;28;19916;-70
2022/01/17 14:30:30;;;;;;;;;;;1.90;99.90;;;;;;5086781;28;19931;-70
2022/01/17 14:33:15;;;;;;;;;;;1.90;99.90;;;;;;5091201;28;19920;-69
2022/01/17 14:35:59;;;;;;;;;;;1.90;99.90;;;;;;5087816;28;19916;-70
2022/01/17 14:38:25;;;;;;;;;;;1.90;99.90;;;;;;5075131;28;20221;-69
2022/01/17 14:40:50;;;;;;;;;;;1.90;99.90;;;;;;5084667;28;20007;-69
2022/01/17 14:43:16;;;;;;;;;;;1.90;99.90;;;;;;5094302;28;19922;-70
2022/01/17 14:45:50;;;;;;;;;;;1.90;99.90;;;;;;5098928;28;19920;-69
2022/01/17 14:48:18;;;;;;;;;;;1.90;99.90;;;;;;5088153;28;22595;-70
2022/01/17 14:50:44;;;;;;;;;;;1.90;99.90;;;;;;5083444;28;20670;-69